Time;durP1;ratioP1;P1;durP2;ratioP2;P2;SDS_P1;SDS_P2;PMS_P1;PMS_P2;Temp;Humidity;BMP_temperature;BMP_pressure;BME280_temperature;BME280_humidity;BME280_pressure;Samples;Min_cycle;Max_cycle;Signal;HPM_P1;HPM_P2
2023/04/26 00:01:48;;;;;;;14.30;4.70;;;;;;;6.49;86.69;99385.44;4222293;28;20315;-65
2023/04/26 00:04:15;;;;;;;13.00;5.67;;;;;;;6.40;87.37;99393.50;4215980;28;20238;-67
2023/04/26 00:06:42;;;;;;;15.23;4.67;;;;;;;6.30;87.19;99396.22;4229688;28;20265;-65
2023/04/26 00:09:09;;;;;;;12.67;5.03;;;;;;;6.18;87.99;99395.53;4226272;28;20234;-66
2023/04/26 00:11:36;;;;;;;12.37;4.53;;;;;;;6.40;86.76;99397.06;4211833;28;21142;-67
2023/04/26 00:14:02;;;;;;;9.33;4.17;;;;;;;6.35;86.92;99407.38;4226145;28;20359;-66
2023/04/26 00:16:29;;;;;;;7.73;3.63;;;;;;;6.25;87.26;99406.56;4228288;28;20593;-65
2023/04/26 00:18:56;;;;;;;13.50;3.60;;;;;;;6.26;87.91;99416.34;4219803;28;20396;-66
2023/04/26 00:21:23;;;;;;;9.33;4.20;;;;;;;6.27;87.72;99415.34;4219832;28;20812;-65
2023/04/26 00:23:51;;;;;;;8.43;3.47;;;;;;;6.31;87.56;99414.88;4218001;28;20281;-66
2023/04/26 00:26:17;;;;;;;8.00;3.30;;;;;;;6.24;88.05;99415.63;4225938;28;20231;-65
2023/04/26 00:28:44;;;;;;;6.67;3.00;;;;;;;6.22;88.15;99421.16;4201499;28;21328;-66
2023/04/26 00:31:17;;;;;;;6.23;2.60;;;;;;;6.26;87.94;99416.34;4226626;28;20568;-65
2023/04/26 00:33:43;;;;;;;5.13;2.80;;;;;;;6.19;87.92;99427.63;4216889;28;22270;-66
2023/04/26 00:36:11;;;;;;;6.57;2.33;;;;;;;6.06;88.15;99435.16;4213571;28;21629;-65
2023/04/26 00:38:38;;;;;;;4.73;2.40;;;;;;;6.02;88.88;99434.59;4218161;28;20239;-66
2023/04/26 00:41:04;;;;;;;7.27;2.50;;;;;;;6.09;88.66;99442.06;4215565;28;20285;-67
2023/04/26 00:43:31;;;;;;;5.93;2.60;;;;;;;6.24;88.50;99439.81;4226636;28;22677;-67
2023/04/26 00:45:57;;;;;;;8.83;3.03;;;;;;;6.37;87.62;99440.34;4217029;28;20661;-66
2023/04/26 00:48:25;;;;;;;7.23;2.57;;;;;;;6.12;88.51;99442.63;4224105;28;20245;-67
2023/04/26 00:50:51;;;;;;;5.83;2.53;;;;;;;6.12;88.79;99439.94;4219320;28;20236;-65
2023/04/26 00:53:18;;;;;;;8.93;2.67;;;;;;;6.18;88.71;99442.09;4234253;28;20315;-67
2023/04/26 00:55:44;;;;;;;9.63;2.97;;;;;;;6.07;88.67;99444.91;4225017;28;22068;-66
2023/04/26 00:58:11;;;;;;;7.67;2.80;;;;;;;6.09;88.65;99440.25;4233397;28;20231;-66
2023/04/26 01:00:37;;;;;;;4.53;2.70;;;;;;;6.15;88.59;99452.28;4222251;28;20418;-68
2023/04/26 01:03:04;;;;;;;5.63;2.30;;;;;;;6.23;88.08;99449.69;4206012;28;20639;-67
2023/04/26 01:05:31;;;;;;;6.27;2.30;;;;;;;6.36;88.03;99449.41;4227336;28;20304;-66
2023/04/26 01:07:58;;;;;;;10.23;2.70;;;;;;;6.32;87.92;99448.00;4220131;28;20307;-65
2023/04/26 01:10:25;;;;;;;7.03;2.63;;;;;;;6.34;87.81;99454.09;4231297;28;21896;-66
2023/04/26 01:12:52;;;;;;;8.97;3.13;;;;;;;6.22;88.17;99450.72;4222616;28;21674;-66
2023/04/26 01:15:18;;;;;;;9.40;3.17;;;;;;;6.38;87.96;99454.66;4234404;28;21333;-65
2023/04/26 01:17:46;;;;;;;3.40;2.40;;;;;;;6.21;88.53;99451.69;4230511;28;20280;-64
2023/04/26 01:20:13;;;;;;;7.00;2.90;;;;;;;6.16;88.81;99456.63;4222664;28;20278;-67
2023/04/26 01:22:40;;;;;;;5.33;2.43;;;;;;;6.18;88.88;99451.97;4226420;28;20228;-67
2023/04/26 01:25:10;;;;;;;5.57;2.50;;;;;;;6.32;88.11;99456.06;4222609;28;20827;-67
2023/04/26 01:27:37;;;;;;;5.53;2.63;;;;;;;6.21;88.34;99459.75;4216306;28;21366;-66
2023/04/26 01:30:04;;;;;;;5.17;2.90;;;;;;;6.32;87.33;99451.53;4227040;28;22071;-67
2023/04/26 01:32:31;;;;;;;5.03;2.43;;;;;;;6.24;87.56;99458.63;4231217;28;20347;-66
2023/04/26 01:34:59;;;;;;;5.47;2.60;;;;;;;6.23;87.65;99459.59;4224115;28;26737;-69
2023/04/26 01:37:26;;;;;;;5.03;2.50;;;;;;;6.20;87.18;99466.13;4224916;28;20305;-67
2023/04/26 01:39:52;;;;;;;5.13;2.67;;;;;;;6.18;87.85;99465.41;4225890;28;20337;-66
2023/04/26 01:42:18;;;;;;;4.57;2.67;;;;;;;6.09;87.58;99469.81;4226172;28;25485;-68
2023/04/26 01:44:45;;;;;;;5.83;2.63;;;;;;;6.08;88.24;99462.75;4233207;28;20644;-67
2023/04/26 01:47:12;;;;;;;8.40;3.50;;;;;;;5.87;89.00;99457.47;4230302;28;20250;-66
2023/04/26 01:49:38;;;;;;;9.27;3.13;;;;;;;5.97;88.67;99460.16;4223160;28;21178;-66
2023/04/26 01:52:05;;;;;;;7.40;3.47;;;;;;;5.98;88.37;99451.97;4233854;28;20231;-68
2023/04/26 01:54:31;;;;;;;5.17;2.70;;;;;;;6.06;87.98;99445.06;4228911;28;21715;-67
2023/04/26 01:56:58;;;;;;;9.10;3.17;;;;;;;5.96;88.65;99453.94;4221074;28;20346;-68
2023/04/26 01:59:25;;;;;;;6.00;3.23;;;;;;;6.13;87.68;99448.88;4227418;28;20313;-66
2023/04/26 02:01:52;;;;;;;10.13;3.17;;;;;;;5.91;88.29;99455.34;4223613;28;20451;-67
2023/04/26 02:04:18;;;;;;;6.43;2.53;;;;;;;6.04;87.89;99453.28;4226295;28;20419;-67
2023/04/26 02:06:45;;;;;;;5.67;2.80;;;;;;;6.05;87.84;99454.94;4223448;28;20235;-67
2023/04/26 02:09:11;;;;;;;5.57;3.53;;;;;;;6.23;86.65;99459.59;4226853;28;21163;-67
2023/04/26 02:11:38;;;;;;;9.30;3.13;;;;;;;6.12;86.62;99457.91;4223845;28;20430;-67
2023/04/26 02:14:05;;;;;;;8.50;3.27;;;;;;;6.10;86.99;99465.28;4219347;28;23237;-67
2023/04/26 02:16:31;;;;;;;6.50;2.57;;;;;;;5.89;87.75;99470.78;4222405;28;21867;-67
2023/04/26 02:18:58;;;;;;;7.90;3.17;;;;;;;5.61;88.98;99465.22;4224411;28;21292;-66
2023/04/26 02:21:27;;;;;;;9.07;3.57;;;;;;;5.66;89.22;99469.19;4221459;28;20307;-67
2023/04/26 02:23:53;;;;;;;7.87;3.90;;;;;;;5.80;89.05;99464.41;4222338;28;20354;-67
2023/04/26 02:26:20;;;;;;;9.33;3.23;;;;;;;5.92;88.45;99460.59;4226068;28;21222;-67
2023/04/26 02:28:46;;;;;;;10.20;3.63;;;;;;;5.64;89.17;99468.47;4226578;28;26012;-66
2023/04/26 02:31:13;;;;;;;9.30;3.80;;;;;;;5.76;88.53;99460.31;4232828;28;20308;-67
2023/04/26 02:33:40;;;;;;;9.10;3.70;;;;;;;5.72;88.71;99465.13;4222914;28;22147;-67
2023/04/26 02:36:07;;;;;;;11.83;4.70;;;;;;;5.75;88.81;99463.97;4230268;28;20375;-67
2023/04/26 02:38:34;;;;;;;10.67;4.37;;;;;;;5.61;89.03;99462.53;4225444;28;20247;-68
2023/04/26 02:41:02;;;;;;;14.37;5.57;;;;;;;5.45;89.80;99465.78;4212352;28;20285;-68
2023/04/26 02:43:29;;;;;;;14.13;5.00;;;;;;;5.52;89.52;99467.75;4221088;28;21020;-67
2023/04/26 02:45:57;;;;;;;17.33;6.20;;;;;;;5.52;89.47;99469.59;4223362;28;20694;-66
2023/04/26 02:48:24;;;;;;;16.03;5.43;;;;;;;5.53;89.20;99468.63;4230944;28;20241;-68
2023/04/26 02:50:51;;;;;;;17.60;6.10;;;;;;;5.54;89.05;99463.09;4221140;28;20242;-67
2023/04/26 02:53:17;;;;;;;14.93;5.67;;;;;;;5.40;89.00;99463.50;4235179;28;20608;-70
2023/04/26 02:55:44;;;;;;;21.77;6.10;;;;;;;5.53;89.03;99469.47;4222389;28;20237;-66
2023/04/26 02:58:12;;;;;;;20.53;6.10;;;;;;;5.63;88.13;99474.00;4222824;28;23722;-68
2023/04/26 03:00:38;;;;;;;23.57;7.10;;;;;;;5.55;87.87;99474.72;4214829;28;20406;-68
2023/04/26 03:03:05;;;;;;;17.97;6.87;;;;;;;5.40;88.01;99471.56;4227512;28;20232;-68
2023/04/26 03:05:32;;;;;;;17.70;6.67;;;;;;;5.53;86.99;99466.78;4212270;28;20657;-68
2023/04/26 03:07:58;;;;;;;17.83;6.87;;;;;;;5.47;86.33;99475.38;4225106;28;20239;-67
2023/04/26 03:10:25;;;;;;;22.67;6.40;;;;;;;5.46;84.41;99483.59;4210484;28;20246;-67
2023/04/26 03:12:52;;;;;;;20.90;6.47;;;;;;;5.39;84.26;99477.91;4203237;28;20340;-69
2023/04/26 03:15:18;;;;;;;15.80;6.03;;;;;;;5.39;84.51;99477.91;4220987;28;20811;-67
2023/04/26 03:17:45;;;;;;;18.00;6.27;;;;;;;5.21;84.06;99469.69;4224753;28;20243;-68
2023/04/26 03:20:12;;;;;;;15.83;5.73;;;;;;;5.07;84.48;99470.88;4230448;28;20245;-70
2023/04/26 03:22:39;;;;;;;19.43;6.63;;;;;;;4.93;83.73;99474.81;4218530;28;20649;-68
2023/04/26 03:25:06;;;;;;;20.63;6.33;;;;;;;5.06;83.53;99475.41;4222945;28;20324;-67
2023/04/26 03:27:33;;;;;;;22.20;5.93;;;;;;;4.91;83.75;99482.13;4221623;28;25059;-67
2023/04/26 03:29:59;;;;;;;20.13;6.50;;;;;;;4.89;83.81;99478.72;4223016;28;21141;-67
2023/04/26 03:32:26;;;;;;;19.37;7.00;;;;;;;4.91;83.82;99482.97;4227637;28;20301;-67
2023/04/26 03:34:53;;;;;;;20.57;5.90;;;;;;;4.85;83.97;99486.19;4242909;28;20261;-67
2023/04/26 03:37:19;;;;;;;16.40;6.03;;;;;;;4.52;85.57;99492.66;4225099;28;20289;-67
2023/04/26 03:39:46;;;;;;;18.87;6.37;;;;;;;4.42;86.62;99490.75;4236125;28;20355;-67
2023/04/26 03:42:13;;;;;;;15.50;6.03;;;;;;;4.29;87.09;99487.44;4233522;28;20227;-66
2023/04/26 03:44:39;;;;;;;18.47;6.10;;;;;;;4.35;86.78;99497.63;4240369;28;20245;-67
2023/04/26 03:47:06;;;;;;;24.80;7.27;;;;;;;4.35;86.63;99502.13;4256293;28;20235;-69
2023/04/26 03:49:33;;;;;;;19.37;6.10;;;;;;;4.38;85.67;99496.53;4232795;28;20821;-66
2023/04/26 03:52:00;;;;;;;21.93;6.30;;;;;;;4.44;85.35;99498.69;4220946;28;25373;-68
2023/04/26 03:54:26;;;;;;;20.70;7.17;;;;;;;4.47;84.31;99494.88;4242176;28;20451;-67
2023/04/26 03:56:53;;;;;;;12.40;6.30;;;;;;;4.40;84.62;99499.91;4238465;28;20301;-68
2023/04/26 03:59:20;;;;;;;22.43;6.77;;;;;;;4.26;84.40;99495.75;4238623;28;21757;-67
2023/04/26 04:01:46;;;;;;;21.87;6.43;;;;;;;4.23;84.13;99498.66;4204507;28;21189;-67
2023/04/26 04:04:13;;;;;;;15.93;6.43;;;;;;;4.04;84.48;99500.22;4223822;28;20236;-66
2023/04/26 04:06:40;;;;;;;18.90;6.37;;;;;;;3.95;84.96;99503.69;4200859;28;20481;-65
2023/04/26 04:09:07;;;;;;;27.57;6.10;;;;;;;3.96;85.61;99508.91;4223083;28;20320;-66
2023/04/26 04:11:35;;;;;;;21.43;6.83;;;;;;;4.08;85.07;99508.84;4225964;28;25142;-66
2023/04/26 04:14:02;;;;;;;22.20;7.13;;;;;;;4.20;84.79;99502.47;4237567;28;20647;-67
2023/04/26 04:16:29;;;;;;;16.17;5.83;;;;;;;4.20;85.17;99502.47;4228853;28;22246;-65
2023/04/26 04:18:55;;;;;;;22.43;6.00;;;;;;;4.14;85.21;99505.66;4209199;28;20290;-64
2023/04/26 04:21:22;;;;;;;17.90;6.73;;;;;;;4.14;85.87;99497.63;4225222;28;20226;-68
2023/04/26 04:23:49;;;;;;;22.03;7.10;;;;;;;4.20;85.58;99510.50;4236330;28;20231;-66
2023/04/26 04:26:16;;;;;;;22.40;7.33;;;;;;;4.22;85.61;99508.53;4213742;28;20307;-64
2023/04/26 04:28:44;;;;;;;22.63;7.47;;;;;;;4.30;85.15;99510.56;4225703;28;20299;-67
2023/04/26 04:31:11;;;;;;;18.60;7.03;;;;;;;4.08;87.21;99522.22;4231358;28;20223;-63
2023/04/26 04:33:38;;;;;;;21.90;8.03;;;;;;;4.10;87.27;99509.56;4206873;28;20337;-68
2023/04/26 04:36:05;;;;;;;19.47;7.33;;;;;;;4.23;87.04;99517.41;4234387;28;20438;-66
2023/04/26 04:38:32;;;;;;;22.30;8.53;;;;;;;4.20;87.30;99517.66;4234119;28;20303;-67
2023/04/26 04:40:59;;;;;;;30.17;9.57;;;;;;;4.18;87.41;99523.16;4219276;28;21550;-67
2023/04/26 04:43:26;;;;;;;20.00;8.17;;;;;;;4.22;86.79;99513.03;4223287;28;20238;-67
2023/04/26 04:45:53;;;;;;;27.77;8.47;;;;;;;4.29;86.57;99522.25;4231161;28;23333;-65
2023/04/26 04:48:20;;;;;;;26.90;8.73;;;;;;;4.21;85.76;99527.41;4216501;28;21147;-67
2023/04/26 04:50:48;;;;;;;20.03;8.50;;;;;;;4.23;85.98;99518.25;4220962;28;20231;-68
2023/04/26 04:53:15;;;;;;;26.77;7.63;;;;;;;4.46;85.30;99526.19;4227684;28;20323;-68
2023/04/26 04:55:41;;;;;;;23.53;8.03;;;;;;;4.59;84.33;99529.53;4224295;28;20571;-67
2023/04/26 04:58:08;;;;;;;25.97;7.87;;;;;;;4.52;84.15;99527.50;4227769;28;20251;-68
2023/04/26 05:00:37;;;;;;;23.13;8.20;;;;;;;4.64;83.69;99530.97;4219850;28;20274;-66
2023/04/26 05:03:04;;;;;;;20.70;7.53;;;;;;;4.52;82.90;99535.53;4237946;28;21038;-68
2023/04/26 05:05:31;;;;;;;21.90;7.73;;;;;;;4.40;83.53;99532.06;4219977;28;21783;-66
2023/04/26 05:07:57;;;;;;;20.67;6.70;;;;;;;4.44;82.87;99547.75;4224316;28;20445;-65
2023/04/26 05:10:24;;;;;;;25.17;7.03;;;;;;;4.16;83.89;99546.53;4230856;28;22537;-68
2023/04/26 05:12:51;;;;;;;21.33;7.83;;;;;;;4.11;83.71;99536.25;4205742;28;20291;-68
2023/04/26 05:15:17;;;;;;;22.37;7.00;;;;;;;4.19;83.50;99551.66;4225520;28;20311;-66
2023/04/26 05:17:44;;;;;;;19.47;6.67;;;;;;;4.16;82.81;99561.78;4218890;28;20293;-65
2023/04/26 05:20:11;;;;;;;25.10;6.53;;;;;;;4.23;82.54;99557.59;4231219;28;20447;-67
2023/04/26 05:22:38;;;;;;;16.10;6.33;;;;;;;4.40;81.42;99559.72;4218392;28;23489;-68
2023/04/26 05:25:07;;;;;;;22.07;6.53;;;;;;;4.26;82.56;99558.19;4229236;28;20243;-67
2023/04/26 05:27:33;;;;;;;16.57;6.30;;;;;;;4.39;82.67;99554.47;4224760;28;20736;-68
2023/04/26 05:30:00;;;;;;;20.13;6.50;;;;;;;4.45;82.38;99553.97;4226990;28;20569;-68
2023/04/26 05:32:26;;;;;;;16.97;6.70;;;;;;;4.78;81.63;99565.47;4224315;28;20269;-67
2023/04/26 05:34:53;;;;;;;18.30;6.47;;;;;;;4.96;80.59;99567.56;4217488;28;20250;-68
2023/04/26 05:37:20;;;;;;;22.90;6.43;;;;;;;4.81;80.66;99569.72;4226735;28;20234;-68
2023/04/26 05:39:46;;;;;;;16.77;5.70;;;;;;;5.00;79.88;99566.28;4237962;28;20235;-68
2023/04/26 05:42:13;;;;;;;16.93;5.80;;;;;;;4.97;80.45;99569.25;4230184;28;20413;-66
2023/04/26 05:44:42;;;;;;;17.77;5.27;;;;;;;5.16;78.53;99566.66;4228480;28;20298;-68
2023/04/26 05:47:10;;;;;;;15.43;4.87;;;;;;;5.20;78.61;99573.47;4226640;28;20491;-68
2023/04/26 05:49:37;;;;;;;13.77;4.83;;;;;;;5.19;77.58;99561.03;4227201;28;20351;-66
2023/04/26 05:52:04;;;;;;;18.60;4.83;;;;;;;5.22;77.21;99565.28;4238024;28;20235;-67
2023/04/26 05:54:30;;;;;;;20.77;5.50;;;;;;;5.15;78.37;99558.75;4227382;28;25712;-66
2023/04/26 05:56:57;;;;;;;11.70;4.27;;;;;;;5.41;76.95;99567.19;4229343;28;21712;-66
2023/04/26 05:59:24;;;;;;;18.37;4.93;;;;;;;5.64;76.92;99573.19;4244231;28;20228;-71
2023/04/26 06:01:51;;;;;;;13.87;4.40;;;;;;;5.54;75.29;99575.03;4234624;28;22896;-67
2023/04/26 06:04:18;;;;;;;13.23;4.10;;;;;;;5.91;74.87;99565.47;4241034;28;21608;-69
2023/04/26 06:06:46;;;;;;;10.20;3.73;;;;;;;6.12;74.07;99565.41;4246262;28;20741;-68
2023/04/26 06:09:13;;;;;;;12.10;3.97;;;;;;;6.66;71.61;99565.81;4235146;28;22557;-66
2023/04/26 06:11:39;;;;;;;15.37;3.57;;;;;;;7.56;69.42;99576.16;4216108;28;21410;-66
2023/04/26 06:14:06;;;;;;;8.83;3.20;;;;;;;8.57;65.10;99572.50;4221958;28;21785;-68
2023/04/26 06:16:45;;;;;;;15.87;3.50;;;;;;;9.08;62.95;99569.16;4230524;28;22021;-68
2023/04/26 06:19:12;;;;;;;13.73;3.57;;;;;;;9.11;61.56;99566.16;4203649;28;22355;-68
2023/04/26 06:21:38;;;;;;;10.30;3.07;;;;;;;9.40;60.36;99573.94;4230992;28;20539;-68
2023/04/26 06:24:05;;;;;;;13.27;3.20;;;;;;;8.88;61.28;99572.91;4240572;28;21255;-69
2023/04/26 06:26:32;;;;;;;13.70;3.50;;;;;;;9.71;60.00;99572.53;4231602;28;20588;-66
2023/04/26 06:28:59;;;;;;;10.13;3.03;;;;;;;10.16;57.67;99568.59;4242825;28;20410;-68
2023/04/26 06:31:26;;;;;;;13.33;3.23;;;;;;;10.30;58.29;99565.22;4238400;28;20227;-69
2023/04/26 06:33:52;;;;;;;11.67;2.90;;;;;;;10.52;55.27;99562.91;4249005;28;23008;-68
2023/04/26 06:36:20;;;;;;;18.27;3.00;;;;;;;10.44;56.01;99571.03;4234528;28;20277;-67
2023/04/26 06:38:47;;;;;;;10.93;2.93;;;;;;;10.37;54.39;99572.72;4232986;28;20490;-66
2023/04/26 06:41:14;;;;;;;18.43;2.90;;;;;;;10.05;56.67;99575.16;4266632;28;22563;-67
2023/04/26 06:43:40;;;;;;;13.83;2.87;;;;;;;11.23;52.34;99578.56;4223132;28;20281;-68
2023/04/26 06:46:07;;;;;;;11.93;2.47;;;;;;;13.24;47.41;99574.28;4231276;28;20724;-67
2023/04/26 06:48:35;;;;;;;7.80;2.57;;;;;;;12.27;49.01;99572.22;4242753;28;20296;-68
2023/04/26 06:51:06;;;;;;;10.80;2.90;;;;;;;11.81;49.86;99578.38;4225820;28;20398;-68
2023/04/26 06:53:36;;;;;;;7.33;2.20;;;;;;;13.25;47.46;99577.84;4232412;28;20231;-66
2023/04/26 06:56:03;;;;;;;10.00;2.27;;;;;;;13.47;44.99;99574.22;4238100;28;20251;-69
2023/04/26 06:58:29;;;;;;;7.63;2.40;;;;;;;13.51;44.26;99580.13;4234614;28;20285;-68
2023/04/26 07:00:56;;;;;;;10.57;2.73;;;;;;;13.89;41.96;99581.88;4203319;28;20235;-67
2023/04/26 07:03:23;;;;;;;7.07;2.00;;;;;;;12.93;43.98;99582.56;4229265;28;20669;-67
2023/04/26 07:05:50;;;;;;;10.60;2.00;;;;;;;14.50;41.03;99578.78;4245333;28;20237;-68
2023/04/26 07:08:17;;;;;;;7.93;2.13;;;;;;;15.34;40.35;99581.81;4238835;28;20310;-67
2023/04/26 07:10:44;;;;;;;10.30;2.40;;;;;;;14.00;42.37;99584.09;4235659;28;21192;-67
2023/04/26 07:13:10;;;;;;;11.10;2.27;;;;;;;12.98;45.43;99577.44;4236810;28;20232;-68
2023/04/26 07:15:37;;;;;;;10.00;2.43;;;;;;;13.61;42.81;99583.41;4243890;28;20280;-69
2023/04/26 07:18:04;;;;;;;12.73;2.30;;;;;;;13.22;43.51;99579.06;4240197;28;20306;-66
2023/04/26 07:20:30;;;;;;;8.67;2.27;;;;;;;14.32;40.68;99586.53;4226768;28;20245;-67
2023/04/26 07:22:57;;;;;;;10.17;2.23;;;;;;;13.60;41.72;99578.13;4233942;28;20754;-69
2023/04/26 07:25:24;;;;;;;10.97;2.33;;;;;;;11.37;47.60;99588.69;4252391;28;20326;-68
2023/04/26 07:27:51;;;;;;;11.20;2.77;;;;;;;10.21;50.59;99587.88;4208363;28;20337;-69
2023/04/26 07:30:17;;;;;;;8.70;2.30;;;;;;;10.37;50.53;99586.22;4226473;28;20227;-65
2023/04/26 07:32:44;;;;;;;15.53;2.30;;;;;;;11.33;48.94;99598.19;4239683;28;20574;-66
2023/04/26 07:35:14;;;;;;;9.63;2.27;;;;;;;12.30;45.64;99588.97;4241657;28;20324;-66
2023/04/26 07:37:42;;;;;;;9.97;2.23;;;;;;;11.66;48.00;99594.53;4231501;28;20281;-69
2023/04/26 07:40:12;;;;;;;11.83;1.90;;;;;;;13.26;44.06;99593.13;4232421;28;22606;-68
2023/04/26 07:42:38;;;;;;;9.90;2.30;;;;;;;12.87;43.85;99592.31;4227828;28;20380;-66
2023/04/26 07:45:06;;;;;;;7.00;2.20;;;;;;;11.15;47.71;99603.84;4240041;28;20239;-70
2023/04/26 07:47:32;;;;;;;7.73;2.07;;;;;;;10.65;49.29;99604.88;4230164;28;20385;-67
2023/04/26 07:49:59;;;;;;;7.83;2.07;;;;;;;12.02;45.21;99599.50;4230713;28;21052;-65
2023/04/26 07:52:26;;;;;;;13.10;2.10;;;;;;;11.80;45.28;99601.09;4224398;28;20518;-69
2023/04/26 07:54:53;;;;;;;9.90;1.83;;;;;;;12.47;43.50;99595.13;4247871;28;20224;-66
2023/04/26 07:57:19;;;;;;;6.07;2.10;;;;;;;12.23;45.28;99600.75;4234613;28;21969;-67
2023/04/26 07:59:46;;;;;;;8.80;2.20;;;;;;;10.48;48.36;99601.28;4230387;28;20383;-68
2023/04/26 08:02:13;;;;;;;10.30;2.17;;;;;;;9.69;51.02;99610.53;4229289;28;20315;-67
2023/04/26 08:04:47;;;;;;;14.70;2.27;;;;;;;10.30;49.82;99610.38;4228932;28;20700;-67
2023/04/26 08:07:15;;;;;;;14.00;2.83;;;;;;;10.30;49.69;99615.81;4237941;28;21814;-71
2023/04/26 08:09:42;;;;;;;8.17;2.07;;;;;;;9.95;48.16;99617.72;4217094;28;21059;-67
2023/04/26 08:12:08;;;;;;;8.13;2.20;;;;;;;9.04;51.00;99619.94;4225832;28;21938;-68
2023/04/26 08:14:36;;;;;;;16.43;3.33;;;;;;;8.31;53.65;99621.78;4224507;28;20587;-68
2023/04/26 08:17:02;;;;;;;12.27;2.43;;;;;;;8.12;55.17;99620.06;4236491;28;22580;-70
2023/04/26 08:19:31;;;;;;;7.60;2.60;;;;;;;8.43;57.20;99621.59;4235780;28;21326;-67
2023/04/26 08:21:58;;;;;;;12.87;3.13;;;;;;;9.13;53.33;99626.25;4227155;28;23460;-64
2023/04/26 08:24:25;;;;;;;11.10;2.50;;;;;;;9.23;53.12;99609.94;4242083;28;20428;-66
2023/04/26 08:26:52;;;;;;;11.30;3.17;;;;;;;9.19;53.32;99615.66;4237478;28;20324;-66
2023/04/26 08:29:19;;;;;;;7.27;1.93;;;;;;;9.52;51.63;99620.38;4260656;28;21850;-63
2023/04/26 08:31:46;;;;;;;14.53;2.53;;;;;;;9.68;50.27;99625.03;4267788;28;20409;-66
2023/04/26 08:34:12;;;;;;;12.63;2.13;;;;;;;8.94;52.84;99617.34;4245377;28;20235;-65
2023/04/26 08:36:44;;;;;;;7.47;2.07;;;;;;;8.54;54.10;99621.38;4223983;28;20395;-65
2023/04/26 08:39:11;;;;;;;10.83;2.20;;;;;;;8.02;54.72;99612.06;4233687;28;20236;-66
2023/04/26 08:41:49;;;;;;;8.57;1.90;;;;;;;7.89;55.30;99625.88;4229177;28;20246;-66
2023/04/26 08:44:17;;;;;;;12.83;2.43;;;;;;;7.74;56.57;99622.03;4218484;28;20971;-65
2023/04/26 08:46:49;;;;;;;10.87;2.10;;;;;;;7.72;57.07;99627.53;4247581;28;20323;-67
2023/04/26 08:49:16;;;;;;;7.37;2.20;;;;;;;8.46;55.62;99619.44;4241164;28;20259;-65
2023/04/26 08:51:43;;;;;;;6.97;1.60;;;;;;;8.43;54.13;99619.72;4225270;28;20242;-64
2023/04/26 08:54:11;;;;;;;10.60;1.80;;;;;;;8.68;53.34;99625.38;4231145;28;20242;-66
2023/04/26 08:56:38;;;;;;;6.30;2.00;;;;;;;8.21;53.82;99621.88;4228919;28;20243;-63
2023/04/26 08:59:04;;;;;;;11.37;2.43;;;;;;;8.09;54.39;99641.97;4232114;28;20699;-65
2023/04/26 09:01:32;;;;;;;8.20;2.20;;;;;;;7.89;56.72;99635.81;4210317;28;21229;-65
2023/04/26 09:03:59;;;;;;;10.60;1.93;;;;;;;7.81;58.71;99633.91;4203832;28;20243;-64
2023/04/26 09:06:27;;;;;;;7.97;2.20;;;;;;;7.88;57.68;99635.00;4210723;28;26258;-65
2023/04/26 09:08:54;;;;;;;6.50;1.73;;;;;;;8.17;54.92;99639.38;4214724;28;20236;-64
2023/04/26 09:11:21;;;;;;;8.47;2.10;;;;;;;8.10;54.81;99651.75;4226316;28;20236;-67
2023/04/26 09:13:48;;;;;;;9.93;1.80;;;;;;;7.69;56.33;99657.50;4220620;28;21601;-65
2023/04/26 09:16:14;;;;;;;15.10;2.07;;;;;;;7.60;56.60;99647.59;4227212;28;20257;-66
2023/04/26 09:18:51;;;;;;;14.30;2.20;;;;;;;7.44;58.53;99650.88;4239638;28;21926;-65
2023/04/26 09:21:19;;;;;;;15.10;2.00;;;;;;;7.37;56.66;99660.53;4230664;28;20237;-67
2023/04/26 09:23:56;;;;;;;9.47;1.90;;;;;;;7.56;55.40;99662.34;4225713;28;22782;-63
2023/04/26 09:26:23;;;;;;;5.33;1.33;;;;;;;7.49;54.47;99667.47;4238634;28;20234;-66
2023/04/26 09:29:10;;;;;;;8.13;1.57;;;;;;;7.52;54.03;99667.16;4216461;28;20238;-66
2023/04/26 09:31:39;;;;;;;9.70;1.60;;;;;;;7.78;55.10;99663.81;4239910;28;20231;-69
2023/04/26 09:34:07;;;;;;;12.20;1.70;;;;;;;8.05;52.81;99665.69;4215382;28;20231;-69
2023/04/26 09:36:53;;;;;;;8.17;1.57;;;;;;;7.99;50.89;99668.13;4234460;28;20307;-63
2023/04/26 09:39:37;;;;;;;9.47;1.67;;;;;;;7.82;53.77;99667.06;4236520;28;20303;-63
2023/04/26 09:42:04;;;;;;;9.80;1.83;;;;;;;7.95;52.12;99672.97;4236525;28;20999;-64
2023/04/26 09:44:31;;;;;;;12.00;2.03;;;;;;;7.65;53.11;99672.22;4241328;28;20360;-63
2023/04/26 09:47:01;;;;;;;6.93;1.50;;;;;;;7.75;53.86;99669.50;4245584;28;21780;-63
2023/04/26 09:49:31;;;;;;;7.53;1.90;;;;;;;8.00;52.36;99667.97;4220500;28;26198;-63
2023/04/26 09:52:02;;;;;;;7.47;1.43;;;;;;;8.00;53.05;99677.91;4227259;28;23048;-64
2023/04/26 09:54:44;;;;;;;5.70;1.10;;;;;;;8.21;50.73;99672.25;4227620;28;23115;-62
2023/04/26 09:57:12;;;;;;;7.97;1.60;;;;;;;8.07;51.15;99677.16;4221866;28;20237;-63
2023/04/26 09:59:45;;;;;;;8.03;1.40;;;;;;;8.27;52.00;99668.97;4235954;28;20344;-62
2023/04/26 10:02:38;;;;;;;8.00;1.50;;;;;;;8.71;49.10;99661.00;4245234;28;20416;-64
2023/04/26 10:05:06;;;;;;;8.73;1.60;;;;;;;8.40;47.30;99655.09;4224652;28;20412;-61
2023/04/26 10:07:33;;;;;;;12.03;1.93;;;;;;;8.27;48.54;99665.44;4235646;28;21576;-61
2023/04/26 10:10:00;;;;;;;7.40;1.70;;;;;;;8.14;47.79;99672.00;4244560;28;20235;-63
2023/04/26 10:12:29;;;;;;;6.40;1.30;;;;;;;8.39;48.07;99661.50;4210306;28;20315;-63
2023/04/26 10:14:56;;;;;;;11.10;1.50;;;;;;;8.26;48.14;99675.34;4236835;28;20660;-65
2023/04/26 10:17:23;;;;;;;5.90;1.30;;;;;;;8.47;49.16;99687.72;4238196;28;20356;-65
2023/04/26 10:19:53;;;;;;;10.10;1.40;;;;;;;8.99;47.94;99671.69;4229906;28;20508;-63
2023/04/26 10:22:22;;;;;;;4.93;1.50;;;;;;;9.15;48.18;99667.44;4230536;28;20239;-61
2023/04/26 10:24:50;;;;;;;7.40;1.60;;;;;;;9.43;47.76;99672.72;4235415;28;20302;-60
2023/04/26 10:27:43;;;;;;;7.00;1.30;;;;;;;9.33;46.15;99665.53;4234589;28;20247;-61
2023/04/26 10:30:12;;;;;;;9.87;1.70;;;;;;;8.98;46.33;99661.91;4236347;28;20308;-64
2023/04/26 10:32:51;;;;;;;11.20;1.43;;;;;;;8.45;48.21;99681.63;4216163;28;20291;-60
2023/04/26 10:35:18;;;;;;;5.33;1.63;;;;;;;8.73;47.62;99685.13;4233658;28;20234;-60
2023/04/26 10:38:00;;;;;;;9.73;1.80;;;;;;;8.46;48.88;99681.47;4238205;28;23089;-62
2023/04/26 10:40:30;;;;;;;9.93;1.90;;;;;;;8.56;48.45;99693.09;4231506;28;23804;-63
2023/04/26 10:43:15;;;;;;;10.20;2.70;;;;;;;8.67;47.48;99693.84;4234550;28;20238;-61
2023/04/26 10:45:43;;;;;;;9.90;1.60;;;;;;;8.48;48.01;99695.69;4220591;28;20226;-63
2023/04/26 10:48:21;;;;;;;7.50;1.67;;;;;;;8.61;47.56;99691.75;4231254;28;20253;-62
2023/04/26 10:51:08;;;;;;;7.67;1.70;;;;;;;8.59;46.95;99691.91;4232536;28;21733;-64
2023/04/26 10:53:34;;;;;;;10.23;1.57;;;;;;;8.78;44.74;99688.22;4245307;28;20645;-63
2023/04/26 10:56:01;;;;;;;7.70;1.70;;;;;;;8.66;45.73;99694.84;4239471;28;22320;-60
2023/04/26 10:58:29;;;;;;;9.07;1.70;;;;;;;8.67;45.12;99683.91;4232721;28;20231;-63
2023/04/26 11:01:22;;;;;;;8.73;2.00;;;;;;;8.75;45.62;99691.22;4238056;28;20368;-64
2023/04/26 11:03:54;;;;;;;8.13;2.00;;;;;;;8.79;46.12;99698.03;4233193;28;20244;-64
2023/04/26 11:06:23;;;;;;;7.50;1.80;;;;;;;8.48;47.45;99701.09;4251307;28;20246;-64
2023/04/26 11:08:50;;;;;;;10.03;2.33;;;;;;;8.25;48.20;99714.09;4224401;28;20231;-63
2023/04/26 11:11:21;;;;;;;9.07;1.70;;;;;;;8.11;49.74;99712.75;4239823;28;20242;-63
2023/04/26 11:13:47;;;;;;;9.77;2.47;;;;;;;8.02;47.10;99719.03;4227026;28;20409;-62
2023/04/26 11:16:15;;;;;;;7.67;1.77;;;;;;;7.74;45.30;99725.25;4230473;28;21771;-65
2023/04/26 11:18:46;;;;;;;8.17;1.70;;;;;;;7.72;45.57;99718.31;4236635;28;20660;-62
2023/04/26 11:21:16;;;;;;;7.63;1.87;;;;;;;7.76;46.64;99719.69;4241909;28;20231;-62
2023/04/26 11:23:52;;;;;;;6.63;1.70;;;;;;;7.89;47.01;99713.97;4224756;28;20308;-62
2023/04/26 11:26:19;;;;;;;7.10;1.57;;;;;;;8.04;46.35;99714.34;4237837;28;20288;-66
2023/04/26 11:28:47;;;;;;;10.60;1.63;;;;;;;8.17;46.72;99717.53;4223823;28;20279;-67
2023/04/26 11:31:14;;;;;;;9.00;1.60;;;;;;;8.31;46.20;99718.03;4229414;28;20295;-63
2023/04/26 11:33:41;;;;;;;12.67;1.83;;;;;;;8.22;47.90;99722.50;4233456;28;20602;-67
2023/04/26 11:36:08;;;;;;;9.67;1.50;;;;;;;8.36;46.60;99727.38;4238913;28;20351;-65
2023/04/26 11:38:36;;;;;;;8.90;1.57;;;;;;;8.79;47.12;99716.06;4233124;28;20229;-65
2023/04/26 11:41:03;;;;;;;12.63;1.60;;;;;;;8.88;47.07;99717.84;4231590;28;23196;-67